sensor_id;sensor_type;location;lat;lon;timestamp;temperature;humidity
2767;DHT22;1391;46.74287300;11.63683300;2023-04-03T00:00:43;5.40;57.50
2767;DHT22;1391;46.74287300;11.63683300;2023-04-03T00:03:11;6.00;57.80
2767;DHT22;1391;46.74287300;11.63683300;2023-04-03T00:05:38;5.60;61.60
2767;DHT22;1391;46.74287300;11.63683300;2023-04-03T00:08:06;5.40;60.30
2767;DHT22;1391;46.74287300;11.63683300;2023-04-03T00:10:35;5.50;59.70
2767;DHT22;1391;46.74287300;11.63683300;2023-04-03T00:13:04;5.50;63.30
2767;DHT22;1391;46.74287300;11.63683300;2023-04-03T00:15:33;5.40;61.20
2767;DHT22;1391;46.74287300;11.63683300;2023-04-03T00:18:01;5.70;60.20
2767;DHT22;1391;46.74287300;11.63683300;2023-04-03T00:20:29;5.80;60.80
2767;DHT22;1391;46.74287300;11.63683300;2023-04-03T00:22:56;6.10;60.20
2767;DHT22;1391;46.74287300;11.63683300;2023-04-03T00:25:23;5.40;61.40
2767;DHT22;1391;46.74287300;11.63683300;2023-04-03T00:27:51;5.30;62.90
2767;DHT22;1391;46.74287300;11.63683300;2023-04-03T00:30:21;5.30;65.20
2767;DHT22;1391;46.74287300;11.63683300;2023-04-03T00:32:49;5.70;64.40
2767;DHT22;1391;46.74287300;11.63683300;2023-04-03T00:35:18;5.40;62.90
2767;DHT22;1391;46.74287300;11.63683300;2023-04-03T00:37:46;5.30;65.50
2767;DHT22;1391;46.74287300;11.63683300;2023-04-03T00:40:15;5.70;65.20
2767;DHT22;1391;46.74287300;11.63683300;2023-04-03T00:42:43;5.60;62.30
2767;DHT22;1391;46.74287300;11.63683300;2023-04-03T00:45:35;5.50;64.50
2767;DHT22;1391;46.74287300;11.63683300;2023-04-03T00:48:06;5.30;65.40
2767;DHT22;1391;46.74287300;11.63683300;2023-04-03T00:50:37;5.70;64.10
2767;DHT22;1391;46.74287300;11.63683300;2023-04-03T00:53:10;5.30;61.90
2767;DHT22;1391;46.74287300;11.63683300;2023-04-03T00:55:39;5.80;61.70
2767;DHT22;1391;46.74287300;11.63683300;2023-04-03T00:58:08;6.00;63.50
2767;DHT22;1391;46.74287300;11.63683300;2023-04-03T01:00:39;5.10;64.80
2767;DHT22;1391;46.74287300;11.63683300;2023-04-03T01:03:09;5.60;65.10
2767;DHT22;1391;46.74287300;11.63683300;2023-04-03T01:05:36;4.80;68.60
2767;DHT22;1391;46.74287300;11.63683300;2023-04-03T01:08:03;4.70;70.00
2767;DHT22;1391;46.74287300;11.63683300;2023-04-03T01:10:31;4.70;69.00
2767;DHT22;1391;46.74287300;11.63683300;2023-04-03T01:12:59;5.20;67.20
2767;DHT22;1391;46.74287300;11.63683300;2023-04-03T01:15:27;5.10;66.50
2767;DHT22;1391;46.74287300;11.63683300;2023-04-03T01:18:01;5.20;66.10
2767;DHT22;1391;46.74287300;11.63683300;2023-04-03T01:24:14;5.30;67.00
2767;DHT22;1391;46.74287300;11.63683300;2023-04-03T01:26:48;4.90;68.00
2767;DHT22;1391;46.74287300;11.63683300;2023-04-03T01:29:16;5.00;67.60
2767;DHT22;1391;46.74287300;11.63683300;2023-04-03T01:31:50;5.10;68.30
2767;DHT22;1391;46.74287300;11.63683300;2023-04-03T01:34:18;4.70;69.80
2767;DHT22;1391;46.74287300;11.63683300;2023-04-03T01:36:46;4.80;68.90
2767;DHT22;1391;46.74287300;11.63683300;2023-04-03T01:39:14;4.80;70.40
2767;DHT22;1391;46.74287300;11.63683300;2023-04-03T01:41:41;5.20;69.30
2767;DHT22;1391;46.74287300;11.63683300;2023-04-03T01:44:09;5.10;69.00
2767;DHT22;1391;46.74287300;11.63683300;2023-04-03T01:46:36;5.10;68.50
2767;DHT22;1391;46.74287300;11.63683300;2023-04-03T01:49:05;5.30;67.80
2767;DHT22;1391;46.74287300;11.63683300;2023-04-03T01:51:32;5.10;68.10
2767;DHT22;1391;46.74287300;11.63683300;2023-04-03T01:54:00;5.20;67.40
2767;DHT22;1391;46.74287300;11.63683300;2023-04-03T01:56:27;5.10;67.80
2767;DHT22;1391;46.74287300;11.63683300;2023-04-03T01:58:54;5.20;68.20
2767;DHT22;1391;46.74287300;11.63683300;2023-04-03T02:01:22;5.00;69.00
2767;DHT22;1391;46.74287300;11.63683300;2023-04-03T02:03:49;5.00;69.80
2767;DHT22;1391;46.74287300;11.63683300;2023-04-03T02:06:17;4.90;69.10
2767;DHT22;1391;46.74287300;11.63683300;2023-04-03T02:08:45;4.60;69.60
2767;DHT22;1391;46.74287300;11.63683300;2023-04-03T02:11:12;4.70;69.40
2767;DHT22;1391;46.74287300;11.63683300;2023-04-03T02:13:39;4.80;68.10
2767;DHT22;1391;46.74287300;11.63683300;2023-04-03T02:16:08;4.40;69.70
2767;DHT22;1391;46.74287300;11.63683300;2023-04-03T02:18:36;4.70;70.80
2767;DHT22;1391;46.74287300;11.63683300;2023-04-03T02:21:04;4.30;71.10
2767;DHT22;1391;46.74287300;11.63683300;2023-04-03T02:23:33;4.70;71.30
2767;DHT22;1391;46.74287300;11.63683300;2023-04-03T02:26:09;4.50;71.60
2767;DHT22;1391;46.74287300;11.63683300;2023-04-03T02:28:39;4.80;71.10
2767;DHT22;1391;46.74287300;11.63683300;2023-04-03T02:31:07;4.60;70.00
2767;DHT22;1391;46.74287300;11.63683300;2023-04-03T02:33:35;4.70;69.50
2767;DHT22;1391;46.74287300;11.63683300;2023-04-03T02:36:03;4.60;70.00
2767;DHT22;1391;46.74287300;11.63683300;2023-04-03T02:38:33;4.70;69.80
2767;DHT22;1391;46.74287300;11.63683300;2023-04-03T02:41:01;4.70;68.10
2767;DHT22;1391;46.74287300;11.63683300;2023-04-03T02:43:29;5.10;67.20
2767;DHT22;1391;46.74287300;11.63683300;2023-04-03T02:45:56;4.70;67.30
2767;DHT22;1391;46.74287300;11.63683300;2023-04-03T02:48:23;4.40;68.80
2767;DHT22;1391;46.74287300;11.63683300;2023-04-03T02:50:51;4.40;69.40
2767;DHT22;1391;46.74287300;11.63683300;2023-04-03T02:53:18;4.40;70.40
2767;DHT22;1391;46.74287300;11.63683300;2023-04-03T02:55:47;4.70;70.00
2767;DHT22;1391;46.74287300;11.63683300;2023-04-03T02:58:15;4.40;70.10
2767;DHT22;1391;46.74287300;11.63683300;2023-04-03T03:00:42;4.40;71.60
2767;DHT22;1391;46.74287300;11.63683300;2023-04-03T03:03:09;3.90;73.40
2767;DHT22;1391;46.74287300;11.63683300;2023-04-03T03:05:36;4.10;72.80
2767;DHT22;1391;46.74287300;11.63683300;2023-04-03T03:08:04;4.70;72.80
2767;DHT22;1391;46.74287300;11.63683300;2023-04-03T03:10:31;4.50;71.60
2767;DHT22;1391;46.74287300;11.63683300;2023-04-03T03:12:59;4.60;71.60
2767;DHT22;1391;46.74287300;11.63683300;2023-04-03T03:15:27;4.30;69.60
2767;DHT22;1391;46.74287300;11.63683300;2023-04-03T03:17:54;4.40;71.10
2767;DHT22;1391;46.74287300;11.63683300;2023-04-03T03:20:21;4.30;69.70
2767;DHT22;1391;46.74287300;11.63683300;2023-04-03T03:22:49;4.30;69.30
2767;DHT22;1391;46.74287300;11.63683300;2023-04-03T03:25:17;4.40;69.70
2767;DHT22;1391;46.74287300;11.63683300;2023-04-03T03:27:44;4.30;69.70
2767;DHT22;1391;46.74287300;11.63683300;2023-04-03T03:30:14;4.70;69.50
2767;DHT22;1391;46.74287300;11.63683300;2023-04-03T03:32:47;6.00;58.10
2767;DHT22;1391;46.74287300;11.63683300;2023-04-03T03:35:14;5.40;59.30
2767;DHT22;1391;46.74287300;11.63683300;2023-04-03T03:37:42;5.70;59.00
2767;DHT22;1391;46.74287300;11.63683300;2023-04-03T03:40:10;5.80;54.20
2767;DHT22;1391;46.74287300;11.63683300;2023-04-03T03:42:39;7.10;45.70
2767;DHT22;1391;46.74287300;11.63683300;2023-04-03T03:45:07;7.50;44.50
2767;DHT22;1391;46.74287300;11.63683300;2023-04-03T03:47:37;7.40;43.90
2767;DHT22;1391;46.74287300;11.63683300;2023-04-03T03:50:08;7.40;41.80
2767;DHT22;1391;46.74287300;11.63683300;2023-04-03T03:52:37;7.90;38.00
2767;DHT22;1391;46.74287300;11.63683300;2023-04-03T03:55:05;8.30;37.70
2767;DHT22;1391;46.74287300;11.63683300;2023-04-03T03:57:33;8.40;36.30
2767;DHT22;1391;46.74287300;11.63683300;2023-04-03T04:00:01;8.30;34.20
2767;DHT22;1391;46.74287300;11.63683300;2023-04-03T04:02:30;8.20;36.80
2767;DHT22;1391;46.74287300;11.63683300;2023-04-03T04:04:59;7.80;35.00
2767;DHT22;1391;46.74287300;11.63683300;2023-04-03T04:07:26;7.90;38.60
2767;DHT22;1391;46.74287300;11.63683300;2023-04-03T04:09:54;8.30;35.20
2767;DHT22;1391;46.74287300;11.63683300;2023-04-03T04:12:22;8.00;35.90
2767;DHT22;1391;46.74287300;11.63683300;2023-04-03T04:14:49;7.90;37.60
2767;DHT22;1391;46.74287300;11.63683300;2023-04-03T04:17:16;8.20;30.60
2767;DHT22;1391;46.74287300;11.63683300;2023-04-03T04:19:44;8.30;32.90
2767;DHT22;1391;46.74287300;11.63683300;2023-04-03T04:22:13;8.20;33.60
2767;DHT22;1391;46.74287300;11.63683300;2023-04-03T04:24:40;8.40;33.50
2767;DHT22;1391;46.74287300;11.63683300;2023-04-03T04:27:07;8.40;31.40
2767;DHT22;1391;46.74287300;11.63683300;2023-04-03T04:29:35;8.30;34.00
2767;DHT22;1391;46.74287300;11.63683300;2023-04-03T04:32:03;8.10;32.60
2767;DHT22;1391;46.74287300;11.63683300;2023-04-03T04:34:30;7.50;34.90
2767;DHT22;1391;46.74287300;11.63683300;2023-04-03T04:36:57;7.60;37.30
2767;DHT22;1391;46.74287300;11.63683300;2023-04-03T04:39:26;7.40;34.90
2767;DHT22;1391;46.74287300;11.63683300;2023-04-03T04:41:54;7.80;32.40
2767;DHT22;1391;46.74287300;11.63683300;2023-04-03T04:44:21;8.30;31.30
2767;DHT22;1391;46.74287300;11.63683300;2023-04-03T04:46:48;8.30;30.80
2767;DHT22;1391;46.74287300;11.63683300;2023-04-03T04:49:16;7.80;32.90
2767;DHT22;1391;46.74287300;11.63683300;2023-04-03T04:51:43;7.50;34.30
2767;DHT22;1391;46.74287300;11.63683300;2023-04-03T04:54:11;7.90;34.40
2767;DHT22;1391;46.74287300;11.63683300;2023-04-03T04:56:39;7.80;32.80
2767;DHT22;1391;46.74287300;11.63683300;2023-04-03T04:59:07;7.50;36.40
2767;DHT22;1391;46.74287300;11.63683300;2023-04-03T05:01:34;7.00;36.10
2767;DHT22;1391;46.74287300;11.63683300;2023-04-03T05:04:01;7.50;34.20
2767;DHT22;1391;46.74287300;11.63683300;2023-04-03T05:06:28;7.50;34.60
2767;DHT22;1391;46.74287300;11.63683300;2023-04-03T05:08:58;7.10;35.80
2767;DHT22;1391;46.74287300;11.63683300;2023-04-03T05:11:25;7.30;36.00
2767;DHT22;1391;46.74287300;11.63683300;2023-04-03T05:13:54;7.20;41.40
2767;DHT22;1391;46.74287300;11.63683300;2023-04-03T05:16:21;7.00;39.00
2767;DHT22;1391;46.74287300;11.63683300;2023-04-03T05:18:49;7.30;36.20
2767;DHT22;1391;46.74287300;11.63683300;2023-04-03T05:21:16;7.10;38.30
2767;DHT22;1391;46.74287300;11.63683300;2023-04-03T05:23:45;7.20;39.60
2767;DHT22;1391;46.74287300;11.63683300;2023-04-03T05:26:12;6.50;40.70
2767;DHT22;1391;46.74287300;11.63683300;2023-04-03T05:28:40;6.90;38.80
2767;DHT22;1391;46.74287300;11.63683300;2023-04-03T05:31:09;6.50;38.70
2767;DHT22;1391;46.74287300;11.63683300;2023-04-03T05:33:36;6.90;34.40
2767;DHT22;1391;46.74287300;11.63683300;2023-04-03T05:36:05;7.40;31.50
2767;DHT22;1391;46.74287300;11.63683300;2023-04-03T05:38:33;7.50;32.50
2767;DHT22;1391;46.74287300;11.63683300;2023-04-03T05:41:00;7.50;32.70
2767;DHT22;1391;46.74287300;11.63683300;2023-04-03T05:43:28;8.00;28.30
2767;DHT22;1391;46.74287300;11.63683300;2023-04-03T05:45:57;7.70;28.90
2767;DHT22;1391;46.74287300;11.63683300;2023-04-03T05:48:28;8.20;28.40
2767;DHT22;1391;46.74287300;11.63683300;2023-04-03T05:50:57;8.30;25.60
2767;DHT22;1391;46.74287300;11.63683300;2023-04-03T05:53:28;8.70;22.40
2767;DHT22;1391;46.74287300;11.63683300;2023-04-03T05:55:59;8.60;22.50
2767;DHT22;1391;46.74287300;11.63683300;2023-04-03T05:58:28;8.50;24.00
2767;DHT22;1391;46.74287300;11.63683300;2023-04-03T06:00:56;8.70;21.50
2767;DHT22;1391;46.74287300;11.63683300;2023-04-03T06:03:24;8.80;23.70
2767;DHT22;1391;46.74287300;11.63683300;2023-04-03T06:05:53;8.60;19.70
2767;DHT22;1391;46.74287300;11.63683300;2023-04-03T06:08:21;8.70;22.00
2767;DHT22;1391;46.74287300;11.63683300;2023-04-03T06:10:49;9.10;21.60
2767;DHT22;1391;46.74287300;11.63683300;2023-04-03T06:13:17;9.20;20.50
2767;DHT22;1391;46.74287300;11.63683300;2023-04-03T06:15:45;8.90;22.50
2767;DHT22;1391;46.74287300;11.63683300;2023-04-03T06:18:12;9.30;24.50
2767;DHT22;1391;46.74287300;11.63683300;2023-04-03T06:20:41;9.10;20.50
2767;DHT22;1391;46.74287300;11.63683300;2023-04-03T06:23:10;9.20;19.90
2767;DHT22;1391;46.74287300;11.63683300;2023-04-03T06:25:38;9.20;20.90
2767;DHT22;1391;46.74287300;11.63683300;2023-04-03T06:28:07;9.20;20.80
2767;DHT22;1391;46.74287300;11.63683300;2023-04-03T06:30:36;9.10;17.50
2767;DHT22;1391;46.74287300;11.63683300;2023-04-03T06:33:03;9.50;18.70
2767;DHT22;1391;46.74287300;11.63683300;2023-04-03T06:35:31;9.60;19.30
2767;DHT22;1391;46.74287300;11.63683300;2023-04-03T06:38:01;9.50;18.00
2767;DHT22;1391;46.74287300;11.63683300;2023-04-03T06:40:31;9.50;21.20
2767;DHT22;1391;46.74287300;11.63683300;2023-04-03T06:42:59;9.50;19.00
2767;DHT22;1391;46.74287300;11.63683300;2023-04-03T06:45:27;9.70;18.00
2767;DHT22;1391;46.74287300;11.63683300;2023-04-03T06:47:54;9.50;15.90
2767;DHT22;1391;46.74287300;11.63683300;2023-04-03T06:50:22;9.90;17.60
2767;DHT22;1391;46.74287300;11.63683300;2023-04-03T06:52:49;9.50;16.50
2767;DHT22;1391;46.74287300;11.63683300;2023-04-03T06:55:18;10.00;15.20
2767;DHT22;1391;46.74287300;11.63683300;2023-04-03T06:57:47;9.90;17.60
2767;DHT22;1391;46.74287300;11.63683300;2023-04-03T07:00:17;10.10;12.30
2767;DHT22;1391;46.74287300;11.63683300;2023-04-03T07:02:45;9.90;16.30
2767;DHT22;1391;46.74287300;11.63683300;2023-04-03T07:05:13;10.20;13.40
2767;DHT22;1391;46.74287300;11.63683300;2023-04-03T07:07:40;10.00;13.10
2767;DHT22;1391;46.74287300;11.63683300;2023-04-03T07:10:08;10.00;11.30
2767;DHT22;1391;46.74287300;11.63683300;2023-04-03T07:12:35;10.10;11.00
2767;DHT22;1391;46.74287300;11.63683300;2023-04-03T07:15:06;10.70;12.70
2767;DHT22;1391;46.74287300;11.63683300;2023-04-03T07:17:34;10.40;11.50
2767;DHT22;1391;46.74287300;11.63683300;2023-04-03T07:23:49;10.70;12.90
2767;DHT22;1391;46.74287300;11.63683300;2023-04-03T07:30:11;11.10;11.70
2767;DHT22;1391;46.74287300;11.63683300;2023-04-03T07:32:40;10.70;9.50
2767;DHT22;1391;46.74287300;11.63683300;2023-04-03T07:35:08;11.00;12.60
2767;DHT22;1391;46.74287300;11.63683300;2023-04-03T07:37:35;10.80;11.00
2767;DHT22;1391;46.74287300;11.63683300;2023-04-03T07:40:03;11.20;9.90
2767;DHT22;1391;46.74287300;11.63683300;2023-04-03T07:42:32;11.20;8.00
2767;DHT22;1391;46.74287300;11.63683300;2023-04-03T07:44:59;11.20;8.40
2767;DHT22;1391;46.74287300;11.63683300;2023-04-03T07:47:28;11.10;14.00
2767;DHT22;1391;46.74287300;11.63683300;2023-04-03T07:49:56;10.90;8.00
2767;DHT22;1391;46.74287300;11.63683300;2023-04-03T07:52:24;11.20;8.50
2767;DHT22;1391;46.74287300;11.63683300;2023-04-03T07:54:51;11.70;8.30
2767;DHT22;1391;46.74287300;11.63683300;2023-04-03T07:57:19;12.10;10.00
2767;DHT22;1391;46.74287300;11.63683300;2023-04-03T07:59:46;11.50;10.10
2767;DHT22;1391;46.74287300;11.63683300;2023-04-03T08:02:14;11.50;6.70
2767;DHT22;1391;46.74287300;11.63683300;2023-04-03T08:04:43;11.50;3.60
2767;DHT22;1391;46.74287300;11.63683300;2023-04-03T08:07:10;11.60;8.90
2767;DHT22;1391;46.74287300;11.63683300;2023-04-03T08:09:37;11.50;7.50
2767;DHT22;1391;46.74287300;11.63683300;2023-04-03T08:12:04;12.10;5.60
2767;DHT22;1391;46.74287300;11.63683300;2023-04-03T08:14:32;12.00;8.80
2767;DHT22;1391;46.74287300;11.63683300;2023-04-03T08:17:01;12.20;5.90
2767;DHT22;1391;46.74287300;11.63683300;2023-04-03T08:19:30;12.20;3.90
2767;DHT22;1391;46.74287300;11.63683300;2023-04-03T08:21:59;12.30;7.20
2767;DHT22;1391;46.74287300;11.63683300;2023-04-03T08:24:28;12.00;4.70
2767;DHT22;1391;46.74287300;11.63683300;2023-04-03T08:26:55;12.30;5.00
2767;DHT22;1391;46.74287300;11.63683300;2023-04-03T08:29:23;12.50;5.40
2767;DHT22;1391;46.74287300;11.63683300;2023-04-03T08:31:51;12.40;6.50
2767;DHT22;1391;46.74287300;11.63683300;2023-04-03T08:34:19;12.60;6.80
2767;DHT22;1391;46.74287300;11.63683300;2023-04-03T08:36:47;12.10;6.60
2767;DHT22;1391;46.74287300;11.63683300;2023-04-03T08:39:16;12.70;8.50
2767;DHT22;1391;46.74287300;11.63683300;2023-04-03T08:41:44;12.60;7.50
2767;DHT22;1391;46.74287300;11.63683300;2023-04-03T08:44:21;12.50;8.90
2767;DHT22;1391;46.74287300;11.63683300;2023-04-03T08:47:04;12.40;5.50
2767;DHT22;1391;46.74287300;11.63683300;2023-04-03T08:49:41;12.80;6.60
2767;DHT22;1391;46.74287300;11.63683300;2023-04-03T08:52:15;12.60;8.40
2767;DHT22;1391;46.74287300;11.63683300;2023-04-03T08:54:51;13.10;7.90
2767;DHT22;1391;46.74287300;11.63683300;2023-04-03T08:57:27;13.00;8.60
2767;DHT22;1391;46.74287300;11.63683300;2023-04-03T08:59:58;13.10;5.60
2767;DHT22;1391;46.74287300;11.63683300;2023-04-03T09:02:33;13.00;8.40
2767;DHT22;1391;46.74287300;11.63683300;2023-04-03T09:05:05;12.50;4.40
2767;DHT22;1391;46.74287300;11.63683300;2023-04-03T09:07:43;12.60;7.50
2767;DHT22;1391;46.74287300;11.63683300;2023-04-03T09:10:23;12.50;7.20
2767;DHT22;1391;46.74287300;11.63683300;2023-04-03T09:12:59;12.90;4.70
2767;DHT22;1391;46.74287300;11.63683300;2023-04-03T09:15:28;12.40;7.20
2767;DHT22;1391;46.74287300;11.63683300;2023-04-03T09:17:59;13.00;7.80
2767;DHT22;1391;46.74287300;11.63683300;2023-04-03T09:20:39;12.80;9.50
2767;DHT22;1391;46.74287300;11.63683300;2023-04-03T09:23:19;13.50;4.70
2767;DHT22;1391;46.74287300;11.63683300;2023-04-03T09:25:56;13.20;7.20
2767;DHT22;1391;46.74287300;11.63683300;2023-04-03T09:28:28;13.20;4.40
2767;DHT22;1391;46.74287300;11.63683300;2023-04-03T09:30:57;13.10;8.10
2767;DHT22;1391;46.74287300;11.63683300;2023-04-03T09:33:27;12.80;4.00
2767;DHT22;1391;46.74287300;11.63683300;2023-04-03T09:35:56;13.00;6.90
2767;DHT22;1391;46.74287300;11.63683300;2023-04-03T09:38:23;13.10;6.40
2767;DHT22;1391;46.74287300;11.63683300;2023-04-03T09:41:04;12.90;9.70
2767;DHT22;1391;46.74287300;11.63683300;2023-04-03T09:43:34;13.10;7.30
2767;DHT22;1391;46.74287300;11.63683300;2023-04-03T09:46:32;13.10;6.60
2767;DHT22;1391;46.74287300;11.63683300;2023-04-03T09:49:04;13.10;7.60
2767;DHT22;1391;46.74287300;11.63683300;2023-04-03T09:51:32;12.90;7.30
2767;DHT22;1391;46.74287300;11.63683300;2023-04-03T09:53:59;13.10;6.90
2767;DHT22;1391;46.74287300;11.63683300;2023-04-03T09:56:30;13.10;9.40
2767;DHT22;1391;46.74287300;11.63683300;2023-04-03T09:59:13;12.90;9.30
2767;DHT22;1391;46.74287300;11.63683300;2023-04-03T10:01:43;13.30;7.60
2767;DHT22;1391;46.74287300;11.63683300;2023-04-03T10:04:25;13.10;9.70
2767;DHT22;1391;46.74287300;11.63683300;2023-04-03T10:07:28;13.10;4.30
2767;DHT22;1391;46.74287300;11.63683300;2023-04-03T10:09:58;12.90;7.30
2767;DHT22;1391;46.74287300;11.63683300;2023-04-03T10:12:28;13.10;6.10
2767;DHT22;1391;46.74287300;11.63683300;2023-04-03T10:14:58;13.10;10.10
2767;DHT22;1391;46.74287300;11.63683300;2023-04-03T10:17:36;13.00;10.20
2767;DHT22;1391;46.74287300;11.63683300;2023-04-03T10:20:21;13.10;11.30
2767;DHT22;1391;46.74287300;11.63683300;2023-04-03T10:23:01;13.20;13.90
2767;DHT22;1391;46.74287300;11.63683300;2023-04-03T10:25:40;13.00;9.70
2767;DHT22;1391;46.74287300;11.63683300;2023-04-03T10:28:12;13.00;6.90
2767;DHT22;1391;46.74287300;11.63683300;2023-04-03T10:30:50;13.00;7.50
2767;DHT22;1391;46.74287300;11.63683300;2023-04-03T10:33:34;13.00;7.50
2767;DHT22;1391;46.74287300;11.63683300;2023-04-03T10:36:23;13.00;9.40
2767;DHT22;1391;46.74287300;11.63683300;2023-04-03T10:38:59;13.40;5.40
2767;DHT22;1391;46.74287300;11.63683300;2023-04-03T10:41:37;13.50;10.10
2767;DHT22;1391;46.74287300;11.63683300;2023-04-03T10:44:18;13.20;6.20
2767;DHT22;1391;46.74287300;11.63683300;2023-04-03T10:46:49;13.10;8.20
2767;DHT22;1391;46.74287300;11.63683300;2023-04-03T10:49:28;12.70;8.00
2767;DHT22;1391;46.74287300;11.63683300;2023-04-03T10:52:08;13.20;7.00
2767;DHT22;1391;46.74287300;11.63683300;2023-04-03T10:54:46;13.00;7.40
2767;DHT22;1391;46.74287300;11.63683300;2023-04-03T10:57:18;12.40;5.70
2767;DHT22;1391;46.74287300;11.63683300;2023-04-03T10:59:50;12.50;7.10
2767;DHT22;1391;46.74287300;11.63683300;2023-04-03T11:02:24;13.20;14.40
2767;DHT22;1391;46.74287300;11.63683300;2023-04-03T11:04:56;12.70;10.10
2767;DHT22;1391;46.74287300;11.63683300;2023-04-03T11:07:29;12.70;8.90
2767;DHT22;1391;46.74287300;11.63683300;2023-04-03T11:10:03;13.10;11.80
2767;DHT22;1391;46.74287300;11.63683300;2023-04-03T11:12:43;13.20;5.50
2767;DHT22;1391;46.74287300;11.63683300;2023-04-03T11:15:16;13.10;13.40
2767;DHT22;1391;46.74287300;11.63683300;2023-04-03T11:17:48;12.50;9.80
2767;DHT22;1391;46.74287300;11.63683300;2023-04-03T11:20:21;12.70;7.60
2767;DHT22;1391;46.74287300;11.63683300;2023-04-03T11:22:58;13.10;11.00
2767;DHT22;1391;46.74287300;11.63683300;2023-04-03T11:25:31;13.20;11.60
2767;DHT22;1391;46.74287300;11.63683300;2023-04-03T11:28:01;13.00;11.00
2767;DHT22;1391;46.74287300;11.63683300;2023-04-03T11:30:37;12.60;7.00
2767;DHT22;1391;46.74287300;11.63683300;2023-04-03T11:33:24;12.70;10.60
2767;DHT22;1391;46.74287300;11.63683300;2023-04-03T11:36:03;12.70;11.00
2767;DHT22;1391;46.74287300;11.63683300;2023-04-03T11:38:36;12.60;9.60
2767;DHT22;1391;46.74287300;11.63683300;2023-04-03T11:41:07;12.90;9.10
2767;DHT22;1391;46.74287300;11.63683300;2023-04-03T11:43:41;12.60;5.80
2767;DHT22;1391;46.74287300;11.63683300;2023-04-03T11:46:11;12.50;8.30
2767;DHT22;1391;46.74287300;11.63683300;2023-04-03T11:48:50;12.60;7.00
2767;DHT22;1391;46.74287300;11.63683300;2023-04-03T11:51:41;13.00;14.90
2767;DHT22;1391;46.74287300;11.63683300;2023-04-03T11:54:47;12.40;12.00
2767;DHT22;1391;46.74287300;11.63683300;2023-04-03T11:57:43;12.80;9.50
2767;DHT22;1391;46.74287300;11.63683300;2023-04-03T12:12:58;12.60;13.70
2767;DHT22;1391;46.74287300;11.63683300;2023-04-03T12:15:50;12.40;8.60
2767;DHT22;1391;46.74287300;11.63683300;2023-04-03T12:25:00;12.20;7.70
2767;DHT22;1391;46.74287300;11.63683300;2023-04-03T12:28:06;12.20;5.30
2767;DHT22;1391;46.74287300;11.63683300;2023-04-03T12:30:41;12.10;7.20
2767;DHT22;1391;46.74287300;11.63683300;2023-04-03T12:33:20;11.80;6.90
2767;DHT22;1391;46.74287300;11.63683300;2023-04-03T12:36:01;12.10;8.00
2767;DHT22;1391;46.74287300;11.63683300;2023-04-03T12:45:14;11.90;5.50
2767;DHT22;1391;46.74287300;11.63683300;2023-04-03T12:47:45;12.10;6.40
2767;DHT22;1391;46.74287300;11.63683300;2023-04-03T12:50:23;12.30;7.70
2767;DHT22;1391;46.74287300;11.63683300;2023-04-03T12:52:59;11.90;6.70
2767;DHT22;1391;46.74287300;11.63683300;2023-04-03T12:55:35;12.20;5.90
2767;DHT22;1391;46.74287300;11.63683300;2023-04-03T12:58:15;12.10;5.80
2767;DHT22;1391;46.74287300;11.63683300;2023-04-03T13:01:02;12.60;6.20
2767;DHT22;1391;46.74287300;11.63683300;2023-04-03T13:03:31;12.10;5.10
2767;DHT22;1391;46.74287300;11.63683300;2023-04-03T13:06:00;12.30;7.80
2767;DHT22;1391;46.74287300;11.63683300;2023-04-03T13:08:29;12.20;6.00
2767;DHT22;1391;46.74287300;11.63683300;2023-04-03T13:11:02;11.50;5.70
2767;DHT22;1391;46.74287300;11.63683300;2023-04-03T13:13:32;11.60;5.00
2767;DHT22;1391;46.74287300;11.63683300;2023-04-03T13:15:59;11.30;7.50
2767;DHT22;1391;46.74287300;11.63683300;2023-04-03T13:18:36;11.60;5.50
2767;DHT22;1391;46.74287300;11.63683300;2023-04-03T13:21:06;12.60;11.10
2767;DHT22;1391;46.74287300;11.63683300;2023-04-03T13:23:40;11.50;4.40
2767;DHT22;1391;46.74287300;11.63683300;2023-04-03T13:26:11;12.20;3.40
2767;DHT22;1391;46.74287300;11.63683300;2023-04-03T13:28:41;12.10;6.80
2767;DHT22;1391;46.74287300;11.63683300;2023-04-03T13:31:18;11.90;6.70
2767;DHT22;1391;46.74287300;11.63683300;2023-04-03T13:33:55;12.10;7.00
2767;DHT22;1391;46.74287300;11.63683300;2023-04-03T13:36:28;11.70;4.90
2767;DHT22;1391;46.74287300;11.63683300;2023-04-03T13:39:00;11.90;6.20
2767;DHT22;1391;46.74287300;11.63683300;2023-04-03T13:41:31;12.10;6.90
2767;DHT22;1391;46.74287300;11.63683300;2023-04-03T13:44:24;12.10;3.70
2767;DHT22;1391;46.74287300;11.63683300;2023-04-03T13:47:16;11.50;6.10
2767;DHT22;1391;46.74287300;11.63683300;2023-04-03T13:49:59;11.60;6.10
2767;DHT22;1391;46.74287300;11.63683300;2023-04-03T13:52:31;11.50;9.50
2767;DHT22;1391;46.74287300;11.63683300;2023-04-03T13:55:09;11.60;8.60
2767;DHT22;1391;46.74287300;11.63683300;2023-04-03T13:57:53;11.60;6.10
2767;DHT22;1391;46.74287300;11.63683300;2023-04-03T14:00:33;11.20;4.70
2767;DHT22;1391;46.74287300;11.63683300;2023-04-03T14:03:11;11.10;6.30
2767;DHT22;1391;46.74287300;11.63683300;2023-04-03T14:05:40;11.60;7.70
2767;DHT22;1391;46.74287300;11.63683300;2023-04-03T14:08:08;10.90;6.20
2767;DHT22;1391;46.74287300;11.63683300;2023-04-03T14:10:36;11.00;7.00
2767;DHT22;1391;46.74287300;11.63683300;2023-04-03T14:13:03;11.30;4.70
2767;DHT22;1391;46.74287300;11.63683300;2023-04-03T14:15:32;10.90;5.60
2767;DHT22;1391;46.74287300;11.63683300;2023-04-03T14:17:59;10.90;8.60
2767;DHT22;1391;46.74287300;11.63683300;2023-04-03T14:20:27;11.10;6.70
2767;DHT22;1391;46.74287300;11.63683300;2023-04-03T14:22:55;11.20;6.70
2767;DHT22;1391;46.74287300;11.63683300;2023-04-03T14:25:22;10.80;5.10
2767;DHT22;1391;46.74287300;11.63683300;2023-04-03T14:27:52;11.00;5.40
2767;DHT22;1391;46.74287300;11.63683300;2023-04-03T14:30:23;10.80;7.70
2767;DHT22;1391;46.74287300;11.63683300;2023-04-03T14:32:54;11.10;6.70
2767;DHT22;1391;46.74287300;11.63683300;2023-04-03T14:35:22;11.10;7.90
2767;DHT22;1391;46.74287300;11.63683300;2023-04-03T14:37:52;10.90;8.20
2767;DHT22;1391;46.74287300;11.63683300;2023-04-03T14:40:24;10.90;9.20
2767;DHT22;1391;46.74287300;11.63683300;2023-04-03T14:42:53;11.10;6.60